sensor_id;sensor_type;location;lat;lon;timestamp;temperature;humidity
14517;DHT22;7344;50.864;4.362;2023-12-20T00:00:40;7.20;99.90
14517;DHT22;7344;50.864;4.362;2023-12-20T00:03:06;7.10;99.90
14517;DHT22;7344;50.864;4.362;2023-12-20T00:05:31;7.10;99.90
14517;DHT22;7344;50.864;4.362;2023-12-20T00:07:57;7.10;99.90
14517;DHT22;7344;50.864;4.362;2023-12-20T00:10:23;7.00;99.90
14517;DHT22;7344;50.864;4.362;2023-12-20T00:12:48;7.00;99.90
14517;DHT22;7344;50.864;4.362;2023-12-20T00:15:14;7.10;99.90
14517;DHT22;7344;50.864;4.362;2023-12-20T00:17:40;7.10;99.90
14517;DHT22;7344;50.864;4.362;2023-12-20T00:20:06;7.10;99.90
14517;DHT22;7344;50.864;4.362;2023-12-20T00:22:32;7.10;99.90
14517;DHT22;7344;50.864;4.362;2023-12-20T00:24:57;7.00;99.90
14517;DHT22;7344;50.864;4.362;2023-12-20T00:27:23;7.00;99.90
14517;DHT22;7344;50.864;4.362;2023-12-20T00:29:48;6.90;99.90
14517;DHT22;7344;50.864;4.362;2023-12-20T00:32:15;6.90;99.90
14517;DHT22;7344;50.864;4.362;2023-12-20T00:34:41;6.80;99.90
14517;DHT22;7344;50.864;4.362;2023-12-20T00:37:07;6.80;99.90
14517;DHT22;7344;50.864;4.362;2023-12-20T00:39:32;6.80;99.90
14517;DHT22;7344;50.864;4.362;2023-12-20T00:41:58;6.90;99.90
14517;DHT22;7344;50.864;4.362;2023-12-20T00:44:24;6.80;99.90
14517;DHT22;7344;50.864;4.362;2023-12-20T00:46:49;6.80;99.90
14517;DHT22;7344;50.864;4.362;2023-12-20T00:49:15;6.80;99.90
14517;DHT22;7344;50.864;4.362;2023-12-20T00:51:40;6.80;99.90
14517;DHT22;7344;50.864;4.362;2023-12-20T00:54:06;6.70;99.90
14517;DHT22;7344;50.864;4.362;2023-12-20T00:56:31;6.70;99.90
14517;DHT22;7344;50.864;4.362;2023-12-20T00:58:57;6.70;99.90
14517;DHT22;7344;50.864;4.362;2023-12-20T01:01:22;6.70;99.90
14517;DHT22;7344;50.864;4.362;2023-12-20T01:03:48;6.70;99.90
14517;DHT22;7344;50.864;4.362;2023-12-20T01:06:16;6.70;99.90
14517;DHT22;7344;50.864;4.362;2023-12-20T01:08:42;6.60;99.90
14517;DHT22;7344;50.864;4.362;2023-12-20T01:11:07;6.60;99.90
14517;DHT22;7344;50.864;4.362;2023-12-20T01:13:33;6.60;99.90
14517;DHT22;7344;50.864;4.362;2023-12-20T01:15:58;6.60;99.90
14517;DHT22;7344;50.864;4.362;2023-12-20T01:18:24;6.50;99.90
14517;DHT22;7344;50.864;4.362;2023-12-20T01:20:50;6.60;99.90
14517;DHT22;7344;50.864;4.362;2023-12-20T01:23:15;6.50;99.90
14517;DHT22;7344;50.864;4.362;2023-12-20T01:25:41;6.50;99.90
14517;DHT22;7344;50.864;4.362;2023-12-20T01:28:06;6.50;99.90
14517;DHT22;7344;50.864;4.362;2023-12-20T01:30:32;6.50;99.90
14517;DHT22;7344;50.864;4.362;2023-12-20T01:32:59;6.50;99.90
14517;DHT22;7344;50.864;4.362;2023-12-20T01:35:25;6.50;99.90
14517;DHT22;7344;50.864;4.362;2023-12-20T01:37:50;6.50;99.90
14517;DHT22;7344;50.864;4.362;2023-12-20T01:40:16;6.50;99.90
14517;DHT22;7344;50.864;4.362;2023-12-20T01:42:42;6.50;99.90
14517;DHT22;7344;50.864;4.362;2023-12-20T01:45:08;6.50;99.90
14517;DHT22;7344;50.864;4.362;2023-12-20T01:47:35;6.50;99.90
14517;DHT22;7344;50.864;4.362;2023-12-20T01:50:01;6.50;99.90
14517;DHT22;7344;50.864;4.362;2023-12-20T01:52:29;6.50;99.90
14517;DHT22;7344;50.864;4.362;2023-12-20T01:54:55;6.50;99.90
14517;DHT22;7344;50.864;4.362;2023-12-20T01:57:27;6.50;99.90
14517;DHT22;7344;50.864;4.362;2023-12-20T01:59:52;6.50;99.90
14517;DHT22;7344;50.864;4.362;2023-12-20T02:02:18;6.60;99.90
14517;DHT22;7344;50.864;4.362;2023-12-20T02:04:44;6.60;99.90
14517;DHT22;7344;50.864;4.362;2023-12-20T02:07:10;6.60;99.90
14517;DHT22;7344;50.864;4.362;2023-12-20T02:09:36;6.60;99.90
14517;DHT22;7344;50.864;4.362;2023-12-20T02:12:03;6.60;99.90
14517;DHT22;7344;50.864;4.362;2023-12-20T02:14:29;6.60;99.90
14517;DHT22;7344;50.864;4.362;2023-12-20T02:16:55;6.60;99.90
14517;DHT22;7344;50.864;4.362;2023-12-20T02:19:20;6.60;99.90
14517;DHT22;7344;50.864;4.362;2023-12-20T02:21:46;6.50;99.90
14517;DHT22;7344;50.864;4.362;2023-12-20T02:24:11;6.50;99.90
14517;DHT22;7344;50.864;4.362;2023-12-20T02:26:37;6.50;99.90
14517;DHT22;7344;50.864;4.362;2023-12-20T02:29:03;6.50;99.90
14517;DHT22;7344;50.864;4.362;2023-12-20T02:31:29;6.50;99.90
14517;DHT22;7344;50.864;4.362;2023-12-20T02:33:54;6.50;99.90
14517;DHT22;7344;50.864;4.362;2023-12-20T02:36:20;6.50;99.90
14517;DHT22;7344;50.864;4.362;2023-12-20T02:38:46;6.50;99.90
14517;DHT22;7344;50.864;4.362;2023-12-20T02:41:12;6.40;99.90
14517;DHT22;7344;50.864;4.362;2023-12-20T02:43:37;6.50;99.90
14517;DHT22;7344;50.864;4.362;2023-12-20T02:46:03;6.50;99.90
14517;DHT22;7344;50.864;4.362;2023-12-20T02:48:28;6.50;99.90
14517;DHT22;7344;50.864;4.362;2023-12-20T02:50:54;6.50;99.90
14517;DHT22;7344;50.864;4.362;2023-12-20T02:53:20;6.50;99.90
14517;DHT22;7344;50.864;4.362;2023-12-20T02:55:45;6.50;99.90
14517;DHT22;7344;50.864;4.362;2023-12-20T02:58:11;6.50;99.90
14517;DHT22;7344;50.864;4.362;2023-12-20T03:00:37;6.40;99.90
14517;DHT22;7344;50.864;4.362;2023-12-20T03:03:02;6.40;99.90
14517;DHT22;7344;50.864;4.362;2023-12-20T03:05:28;6.50;99.90
14517;DHT22;7344;50.864;4.362;2023-12-20T03:07:54;6.60;99.90
14517;DHT22;7344;50.864;4.362;2023-12-20T03:10:21;6.70;99.90
14517;DHT22;7344;50.864;4.362;2023-12-20T03:12:46;6.70;99.90
14517;DHT22;7344;50.864;4.362;2023-12-20T03:15:12;6.70;99.90
14517;DHT22;7344;50.864;4.362;2023-12-20T03:17:37;6.80;99.90
14517;DHT22;7344;50.864;4.362;2023-12-20T03:20:03;6.80;99.90
14517;DHT22;7344;50.864;4.362;2023-12-20T03:22:29;6.90;99.90
14517;DHT22;7344;50.864;4.362;2023-12-20T03:24:54;6.90;99.90
14517;DHT22;7344;50.864;4.362;2023-12-20T03:27:20;6.80;99.90
14517;DHT22;7344;50.864;4.362;2023-12-20T03:29:45;6.80;99.90
14517;DHT22;7344;50.864;4.362;2023-12-20T03:32:11;6.80;99.90
14517;DHT22;7344;50.864;4.362;2023-12-20T03:34:36;6.80;99.90
14517;DHT22;7344;50.864;4.362;2023-12-20T03:37:02;6.70;99.90
14517;DHT22;7344;50.864;4.362;2023-12-20T03:39:28;6.90;99.90
14517;DHT22;7344;50.864;4.362;2023-12-20T03:41:53;6.90;99.90
14517;DHT22;7344;50.864;4.362;2023-12-20T03:44:19;6.80;99.90
14517;DHT22;7344;50.864;4.362;2023-12-20T03:46:45;6.80;99.90
14517;DHT22;7344;50.864;4.362;2023-12-20T03:49:11;6.70;99.90
14517;DHT22;7344;50.864;4.362;2023-12-20T03:51:36;6.70;99.90
14517;DHT22;7344;50.864;4.362;2023-12-20T03:54:02;6.70;99.90
14517;DHT22;7344;50.864;4.362;2023-12-20T03:56:28;6.70;99.90
14517;DHT22;7344;50.864;4.362;2023-12-20T03:58:54;6.80;99.90
14517;DHT22;7344;50.864;4.362;2023-12-20T04:01:19;6.90;99.90
14517;DHT22;7344;50.864;4.362;2023-12-20T04:03:45;6.90;99.90
14517;DHT22;7344;50.864;4.362;2023-12-20T04:06:10;7.00;99.90
14517;DHT22;7344;50.864;4.362;2023-12-20T04:08:41;6.90;99.90
14517;DHT22;7344;50.864;4.362;2023-12-20T04:11:06;6.90;99.90
14517;DHT22;7344;50.864;4.362;2023-12-20T04:13:32;7.00;99.90
14517;DHT22;7344;50.864;4.362;2023-12-20T04:15:57;7.00;99.90
14517;DHT22;7344;50.864;4.362;2023-12-20T04:18:23;7.00;99.90
14517;DHT22;7344;50.864;4.362;2023-12-20T04:20:48;7.00;99.90
14517;DHT22;7344;50.864;4.362;2023-12-20T04:23:15;6.90;99.90
14517;DHT22;7344;50.864;4.362;2023-12-20T04:25:40;6.80;99.90
14517;DHT22;7344;50.864;4.362;2023-12-20T04:28:06;6.80;99.90
14517;DHT22;7344;50.864;4.362;2023-12-20T04:30:31;6.70;99.90
14517;DHT22;7344;50.864;4.362;2023-12-20T04:32:57;6.80;99.90
14517;DHT22;7344;50.864;4.362;2023-12-20T04:35:23;6.80;99.90
14517;DHT22;7344;50.864;4.362;2023-12-20T04:37:48;6.80;99.90
14517;DHT22;7344;50.864;4.362;2023-12-20T04:40:15;6.70;99.90
14517;DHT22;7344;50.864;4.362;2023-12-20T04:42:40;6.70;99.90
14517;DHT22;7344;50.864;4.362;2023-12-20T04:45:06;6.80;99.90
14517;DHT22;7344;50.864;4.362;2023-12-20T04:47:32;6.80;99.90
14517;DHT22;7344;50.864;4.362;2023-12-20T04:49:57;6.70;99.90
14517;DHT22;7344;50.864;4.362;2023-12-20T04:52:23;6.80;99.90
14517;DHT22;7344;50.864;4.362;2023-12-20T04:54:48;6.90;99.90
14517;DHT22;7344;50.864;4.362;2023-12-20T04:57:14;6.90;99.90
14517;DHT22;7344;50.864;4.362;2023-12-20T04:59:39;6.90;99.90
14517;DHT22;7344;50.864;4.362;2023-12-20T05:02:06;6.90;99.90
14517;DHT22;7344;50.864;4.362;2023-12-20T05:04:32;6.90;99.90
14517;DHT22;7344;50.864;4.362;2023-12-20T05:06:57;6.90;99.90
14517;DHT22;7344;50.864;4.362;2023-12-20T05:09:23;6.90;99.90
14517;DHT22;7344;50.864;4.362;2023-12-20T05:11:48;6.90;99.90
14517;DHT22;7344;50.864;4.362;2023-12-20T05:14:14;7.00;99.90
14517;DHT22;7344;50.864;4.362;2023-12-20T05:16:39;6.90;99.90
14517;DHT22;7344;50.864;4.362;2023-12-20T05:19:05;6.90;99.90
14517;DHT22;7344;50.864;4.362;2023-12-20T05:21:32;6.80;99.90
14517;DHT22;7344;50.864;4.362;2023-12-20T05:23:58;6.70;99.90
14517;DHT22;7344;50.864;4.362;2023-12-20T05:26:24;6.60;99.90
14517;DHT22;7344;50.864;4.362;2023-12-20T05:28:49;6.50;99.90
14517;DHT22;7344;50.864;4.362;2023-12-20T05:31:15;6.50;99.90
14517;DHT22;7344;50.864;4.362;2023-12-20T05:33:40;6.50;99.90
14517;DHT22;7344;50.864;4.362;2023-12-20T05:36:06;6.50;99.90
14517;DHT22;7344;50.864;4.362;2023-12-20T05:38:36;6.50;99.90
14517;DHT22;7344;50.864;4.362;2023-12-20T05:41:02;6.50;99.90
14517;DHT22;7344;50.864;4.362;2023-12-20T05:43:28;6.40;99.90
14517;DHT22;7344;50.864;4.362;2023-12-20T05:45:53;6.30;99.90
14517;DHT22;7344;50.864;4.362;2023-12-20T05:48:19;6.40;99.90
14517;DHT22;7344;50.864;4.362;2023-12-20T05:50:44;6.30;99.90
14517;DHT22;7344;50.864;4.362;2023-12-20T05:53:10;6.20;99.90
14517;DHT22;7344;50.864;4.362;2023-12-20T05:55:35;6.20;99.90
14517;DHT22;7344;50.864;4.362;2023-12-20T05:58:01;6.30;99.90
14517;DHT22;7344;50.864;4.362;2023-12-20T06:00:26;6.30;99.90
14517;DHT22;7344;50.864;4.362;2023-12-20T06:02:52;6.30;99.90
14517;DHT22;7344;50.864;4.362;2023-12-20T06:05:17;6.30;99.90
14517;DHT22;7344;50.864;4.362;2023-12-20T06:07:43;6.30;99.90
14517;DHT22;7344;50.864;4.362;2023-12-20T06:10:10;6.30;99.90
14517;DHT22;7344;50.864;4.362;2023-12-20T06:12:37;6.30;99.90
14517;DHT22;7344;50.864;4.362;2023-12-20T06:15:03;6.30;99.90
14517;DHT22;7344;50.864;4.362;2023-12-20T06:17:28;6.30;99.90
14517;DHT22;7344;50.864;4.362;2023-12-20T06:19:56;6.30;99.90
14517;DHT22;7344;50.864;4.362;2023-12-20T06:22:21;6.40;99.90
14517;DHT22;7344;50.864;4.362;2023-12-20T06:24:47;6.40;99.90
14517;DHT22;7344;50.864;4.362;2023-12-20T06:27:12;6.40;99.90
14517;DHT22;7344;50.864;4.362;2023-12-20T06:29:38;6.40;99.90
14517;DHT22;7344;50.864;4.362;2023-12-20T06:32:04;6.40;99.90
14517;DHT22;7344;50.864;4.362;2023-12-20T06:34:29;6.40;99.90
14517;DHT22;7344;50.864;4.362;2023-12-20T06:36:55;6.40;99.90
14517;DHT22;7344;50.864;4.362;2023-12-20T06:39:20;6.40;99.90
14517;DHT22;7344;50.864;4.362;2023-12-20T06:41:46;6.30;99.90
14517;DHT22;7344;50.864;4.362;2023-12-20T06:44:11;6.30;99.90
14517;DHT22;7344;50.864;4.362;2023-12-20T06:46:37;6.30;99.90
14517;DHT22;7344;50.864;4.362;2023-12-20T06:49:03;6.30;99.90
14517;DHT22;7344;50.864;4.362;2023-12-20T06:51:28;6.30;99.90
14517;DHT22;7344;50.864;4.362;2023-12-20T06:53:56;6.20;99.90
14517;DHT22;7344;50.864;4.362;2023-12-20T06:56:21;6.10;99.90
14517;DHT22;7344;50.864;4.362;2023-12-20T06:58:47;6.10;99.90
14517;DHT22;7344;50.864;4.362;2023-12-20T07:01:16;6.10;99.90
14517;DHT22;7344;50.864;4.362;2023-12-20T07:03:42;6.00;99.90
14517;DHT22;7344;50.864;4.362;2023-12-20T07:06:08;6.00;99.90
14517;DHT22;7344;50.864;4.362;2023-12-20T07:08:33;6.00;99.90
14517;DHT22;7344;50.864;4.362;2023-12-20T07:10:59;5.90;99.90
14517;DHT22;7344;50.864;4.362;2023-12-20T07:13:24;6.00;99.90
14517;DHT22;7344;50.864;4.362;2023-12-20T07:15:50;5.90;99.90
14517;DHT22;7344;50.864;4.362;2023-12-20T07:18:16;5.90;99.90
14517;DHT22;7344;50.864;4.362;2023-12-20T07:20:41;6.00;99.90
14517;DHT22;7344;50.864;4.362;2023-12-20T07:23:08;6.00;99.90
14517;DHT22;7344;50.864;4.362;2023-12-20T07:25:34;6.00;99.90
14517;DHT22;7344;50.864;4.362;2023-12-20T07:27:59;5.90;99.90
14517;DHT22;7344;50.864;4.362;2023-12-20T07:30:25;5.80;99.90
14517;DHT22;7344;50.864;4.362;2023-12-20T07:32:50;5.70;99.90
14517;DHT22;7344;50.864;4.362;2023-12-20T07:35:17;5.80;99.90
14517;DHT22;7344;50.864;4.362;2023-12-20T07:37:44;5.70;99.90
14517;DHT22;7344;50.864;4.362;2023-12-20T07:40:10;5.70;99.90
14517;DHT22;7344;50.864;4.362;2023-12-20T07:42:36;5.70;99.90
14517;DHT22;7344;50.864;4.362;2023-12-20T07:45:02;5.70;99.90
14517;DHT22;7344;50.864;4.362;2023-12-20T07:47:28;5.70;99.90
14517;DHT22;7344;50.864;4.362;2023-12-20T07:49:53;5.70;99.90
14517;DHT22;7344;50.864;4.362;2023-12-20T07:52:19;5.70;99.90
14517;DHT22;7344;50.864;4.362;2023-12-20T07:54:48;5.70;99.90
14517;DHT22;7344;50.864;4.362;2023-12-20T07:57:13;5.70;99.90
14517;DHT22;7344;50.864;4.362;2023-12-20T07:59:39;5.80;99.90
14517;DHT22;7344;50.864;4.362;2023-12-20T08:02:04;5.70;99.90
14517;DHT22;7344;50.864;4.362;2023-12-20T08:04:30;5.80;99.90
14517;DHT22;7344;50.864;4.362;2023-12-20T08:06:56;5.70;99.90
14517;DHT22;7344;50.864;4.362;2023-12-20T08:09:21;5.80;99.90
14517;DHT22;7344;50.864;4.362;2023-12-20T08:11:48;5.80;99.90
14517;DHT22;7344;50.864;4.362;2023-12-20T08:14:14;5.80;99.90
14517;DHT22;7344;50.864;4.362;2023-12-20T08:16:39;5.90;99.90
14517;DHT22;7344;50.864;4.362;2023-12-20T08:19:05;5.90;99.90
14517;DHT22;7344;50.864;4.362;2023-12-20T08:21:30;6.00;99.90
14517;DHT22;7344;50.864;4.362;2023-12-20T08:23:56;6.10;99.90
14517;DHT22;7344;50.864;4.362;2023-12-20T08:26:21;6.20;99.90
14517;DHT22;7344;50.864;4.362;2023-12-20T08:28:50;6.20;99.90
14517;DHT22;7344;50.864;4.362;2023-12-20T08:31:18;6.40;99.90
14517;DHT22;7344;50.864;4.362;2023-12-20T08:33:45;6.50;99.90
14517;DHT22;7344;50.864;4.362;2023-12-20T08:36:11;6.60;99.90
14517;DHT22;7344;50.864;4.362;2023-12-20T08:38:36;6.90;99.90
14517;DHT22;7344;50.864;4.362;2023-12-20T08:41:02;7.30;99.90
14517;DHT22;7344;50.864;4.362;2023-12-20T08:43:36;7.80;99.90
14517;DHT22;7344;50.864;4.362;2023-12-20T08:46:02;8.00;99.90
14517;DHT22;7344;50.864;4.362;2023-12-20T08:48:28;8.40;99.90
14517;DHT22;7344;50.864;4.362;2023-12-20T08:50:54;8.40;99.90
14517;DHT22;7344;50.864;4.362;2023-12-20T08:53:19;8.40;99.90
14517;DHT22;7344;50.864;4.362;2023-12-20T08:55:46;8.50;99.90
14517;DHT22;7344;50.864;4.362;2023-12-20T08:58:12;8.90;99.90
14517;DHT22;7344;50.864;4.362;2023-12-20T09:00:37;9.40;99.90
14517;DHT22;7344;50.864;4.362;2023-12-20T09:03:04;9.90;99.90
14517;DHT22;7344;50.864;4.362;2023-12-20T09:05:29;10.30;99.90
14517;DHT22;7344;50.864;4.362;2023-12-20T09:07:55;10.10;99.90
14517;DHT22;7344;50.864;4.362;2023-12-20T09:10:21;10.50;99.90
14517;DHT22;7344;50.864;4.362;2023-12-20T09:12:52;10.80;99.90
14517;DHT22;7344;50.864;4.362;2023-12-20T09:15:24;11.00;99.90
14517;DHT22;7344;50.864;4.362;2023-12-20T09:17:51;10.90;99.90
14517;DHT22;7344;50.864;4.362;2023-12-20T09:20:16;10.60;99.90
14517;DHT22;7344;50.864;4.362;2023-12-20T09:22:42;10.70;99.90
14517;DHT22;7344;50.864;4.362;2023-12-20T09:25:08;10.80;99.90
14517;DHT22;7344;50.864;4.362;2023-12-20T09:27:34;10.90;99.90
14517;DHT22;7344;50.864;4.362;2023-12-20T09:30:00;11.20;99.90
14517;DHT22;7344;50.864;4.362;2023-12-20T09:32:25;11.60;99.90
14517;DHT22;7344;50.864;4.362;2023-12-20T09:34:51;11.90;99.90
14517;DHT22;7344;50.864;4.362;2023-12-20T09:37:16;11.80;99.90
14517;DHT22;7344;50.864;4.362;2023-12-20T09:39:42;11.90;99.90
14517;DHT22;7344;50.864;4.362;2023-12-20T09:42:08;11.70;99.90
14517;DHT22;7344;50.864;4.362;2023-12-20T09:44:36;11.80;99.90
14517;DHT22;7344;50.864;4.362;2023-12-20T09:47:03;11.60;99.90
14517;DHT22;7344;50.864;4.362;2023-12-20T09:49:30;11.30;99.90
14517;DHT22;7344;50.864;4.362;2023-12-20T09:51:56;10.90;99.90
14517;DHT22;7344;50.864;4.362;2023-12-20T09:54:23;10.60;99.90
14517;DHT22;7344;50.864;4.362;2023-12-20T09:56:49;10.30;99.90
14517;DHT22;7344;50.864;4.362;2023-12-20T09:59:15;10.10;99.90
14517;DHT22;7344;50.864;4.362;2023-12-20T10:01:42;10.10;99.90
14517;DHT22;7344;50.864;4.362;2023-12-20T10:04:10;9.80;99.90
14517;DHT22;7344;50.864;4.362;2023-12-20T10:06:41;9.80;99.90
14517;DHT22;7344;50.864;4.362;2023-12-20T10:09:07;9.80;99.90
14517;DHT22;7344;50.864;4.362;2023-12-20T10:11:35;9.80;99.90
14517;DHT22;7344;50.864;4.362;2023-12-20T10:14:02;9.50;99.90
14517;DHT22;7344;50.864;4.362;2023-12-20T10:16:28;9.40;99.90
14517;DHT22;7344;50.864;4.362;2023-12-20T10:18:55;9.70;99.90
14517;DHT22;7344;50.864;4.362;2023-12-20T10:21:22;10.10;99.90
14517;DHT22;7344;50.864;4.362;2023-12-20T10:23:48;10.40;99.90
14517;DHT22;7344;50.864;4.362;2023-12-20T10:26:22;10.40;99.90
14517;DHT22;7344;50.864;4.362;2023-12-20T10:28:55;10.30;99.90
14517;DHT22;7344;50.864;4.362;2023-12-20T10:31:30;10.30;99.90
14517;DHT22;7344;50.864;4.362;2023-12-20T10:33:58;10.00;99.90
14517;DHT22;7344;50.864;4.362;2023-12-20T10:36:25;10.00;99.90
14517;DHT22;7344;50.864;4.362;2023-12-20T10:38:53;9.80;99.90
14517;DHT22;7344;50.864;4.362;2023-12-20T10:41:32;9.60;99.90
14517;DHT22;7344;50.864;4.362;2023-12-20T10:44:02;9.70;99.90
14517;DHT22;7344;50.864;4.362;2023-12-20T10:46:28;9.70;99.90
14517;DHT22;7344;50.864;4.362;2023-12-20T10:48:56;9.70;99.90
14517;DHT22;7344;50.864;4.362;2023-12-20T10:51:23;9.60;99.90
14517;DHT22;7344;50.864;4.362;2023-12-20T10:53:50;9.40;99.90
14517;DHT22;7344;50.864;4.362;2023-12-20T10:56:17;9.40;99.90
14517;DHT22;7344;50.864;4.362;2023-12-20T10:58:47;9.40;99.90
14517;DHT22;7344;50.864;4.362;2023-12-20T11:01:14;9.50;99.90
14517;DHT22;7344;50.864;4.362;2023-12-20T11:03:49;9.30;99.90
14517;DHT22;7344;50.864;4.362;2023-12-20T11:09:04;9.10;99.90
14517;DHT22;7344;50.864;4.362;2023-12-20T11:11:47;9.10;99.90
14517;DHT22;7344;50.864;4.362;2023-12-20T11:14:23;9.00;99.90
14517;DHT22;7344;50.864;4.362;2023-12-20T11:16:50;9.00;99.90
14517;DHT22;7344;50.864;4.362;2023-12-20T11:19:16;9.10;99.90
14517;DHT22;7344;50.864;4.362;2023-12-20T11:21:42;9.10;99.90
14517;DHT22;7344;50.864;4.362;2023-12-20T11:24:08;9.10;99.90
14517;DHT22;7344;50.864;4.362;2023-12-20T11:26:34;9.10;99.90
14517;DHT22;7344;50.864;4.362;2023-12-20T11:29:37;9.10;99.90
14517;DHT22;7344;50.864;4.362;2023-12-20T11:35:19;9.30;99.90
14517;DHT22;7344;50.864;4.362;2023-12-20T11:37:45;9.30;99.90
14517;DHT22;7344;50.864;4.362;2023-12-20T11:40:16;9.20;99.90
14517;DHT22;7344;50.864;4.362;2023-12-20T11:42:45;9.30;99.90
14517;DHT22;7344;50.864;4.362;2023-12-20T11:45:14;9.20;99.90
14517;DHT22;7344;50.864;4.362;2023-12-20T11:47:46;9.20;99.90
14517;DHT22;7344;50.864;4.362;2023-12-20T11:50:12;9.30;99.90
14517;DHT22;7344;50.864;4.362;2023-12-20T11:52:38;9.20;99.90
14517;DHT22;7344;50.864;4.362;2023-12-20T11:55:04;9.40;99.90
14517;DHT22;7344;50.864;4.362;2023-12-20T11:57:30;9.40;99.90
14517;DHT22;7344;50.864;4.362;2023-12-20T11:59:56;9.40;99.90
14517;DHT22;7344;50.864;4.362;2023-12-20T12:02:22;9.30;99.90
14517;DHT22;7344;50.864;4.362;2023-12-20T12:04:49;9.40;99.90
14517;DHT22;7344;50.864;4.362;2023-12-20T12:07:16;9.30;99.90
14517;DHT22;7344;50.864;4.362;2023-12-20T12:09:43;9.30;99.90
14517;DHT22;7344;50.864;4.362;2023-12-20T12:12:08;9.30;99.90
14517;DHT22;7344;50.864;4.362;2023-12-20T12:14:34;9.50;99.90
14517;DHT22;7344;50.864;4.362;2023-12-20T12:17:02;9.40;99.90
14517;DHT22;7344;50.864;4.362;2023-12-20T12:19:29;9.60;99.90
14517;DHT22;7344;50.864;4.362;2023-12-20T12:22:14;9.50;99.90
14517;DHT22;7344;50.864;4.362;2023-12-20T12:24:45;9.50;99.90
14517;DHT22;7344;50.864;4.362;2023-12-20T12:27:12;9.60;99.90
14517;DHT22;7344;50.864;4.362;2023-12-20T12:29:38;9.60;99.90
14517;DHT22;7344;50.864;4.362;2023-12-20T12:32:08;9.60;99.90
14517;DHT22;7344;50.864;4.362;2023-12-20T12:34:34;9.50;99.90
14517;DHT22;7344;50.864;4.362;2023-12-20T12:37:00;9.60;99.90
14517;DHT22;7344;50.864;4.362;2023-12-20T12:39:26;9.50;99.90
14517;DHT22;7344;50.864;4.362;2023-12-20T12:41:52;9.60;99.90
14517;DHT22;7344;50.864;4.362;2023-12-20T12:44:17;9.60;99.90
14517;DHT22;7344;50.864;4.362;2023-12-20T12:46:46;9.60;99.90
14517;DHT22;7344;50.864;4.362;2023-12-20T12:49:15;9.40;99.90
14517;DHT22;7344;50.864;4.362;2023-12-20T12:51:40;9.30;99.90
14517;DHT22;7344;50.864;4.362;2023-12-20T12:54:06;9.30;99.90
14517;DHT22;7344;50.864;4.362;2023-12-20T12:56:32;9.30;99.90
14517;DHT22;7344;50.864;4.362;2023-12-20T12:58:57;9.40;99.90
14517;DHT22;7344;50.864;4.362;2023-12-20T13:01:23;9.40;99.90
14517;DHT22;7344;50.864;4.362;2023-12-20T13:03:51;9.50;99.90
14517;DHT22;7344;50.864;4.362;2023-12-20T13:06:17;9.40;99.90
14517;DHT22;7344;50.864;4.362;2023-12-20T13:08:43;9.40;99.90
14517;DHT22;7344;50.864;4.362;2023-12-20T13:11:09;9.50;99.90
14517;DHT22;7344;50.864;4.362;2023-12-20T13:13:35;9.60;99.90
14517;DHT22;7344;50.864;4.362;2023-12-20T13:16:00;9.60;99.90
14517;DHT22;7344;50.864;4.362;2023-12-20T13:18:26;9.60;99.90
14517;DHT22;7344;50.864;4.362;2023-12-20T13:20:51;9.70;99.90
14517;DHT22;7344;50.864;4.362;2023-12-20T13:23:17;9.80;99.90
14517;DHT22;7344;50.864;4.362;2023-12-20T13:25:46;9.80;99.90
14517;DHT22;7344;50.864;4.362;2023-12-20T13:28:12;9.70;99.90
14517;DHT22;7344;50.864;4.362;2023-12-20T13:30:38;9.70;99.90
14517;DHT22;7344;50.864;4.362;2023-12-20T13:33:04;9.80;99.90
14517;DHT22;7344;50.864;4.362;2023-12-20T13:35:31;9.80;99.90
14517;DHT22;7344;50.864;4.362;2023-12-20T13:37:57;9.80;99.90
14517;DHT22;7344;50.864;4.362;2023-12-20T13:40:23;9.90;99.90
14517;DHT22;7344;50.864;4.362;2023-12-20T13:42:48;10.00;99.90
14517;DHT22;7344;50.864;4.362;2023-12-20T13:45:14;10.00;99.90
14517;DHT22;7344;50.864;4.362;2023-12-20T13:47:40;9.90;99.90
14517;DHT22;7344;50.864;4.362;2023-12-20T13:50:05;10.00;99.90
14517;DHT22;7344;50.864;4.362;2023-12-20T13:52:31;10.00;99.90
14517;DHT22;7344;50.864;4.362;2023-12-20T13:54:57;10.00;99.90
14517;DHT22;7344;50.864;4.362;2023-12-20T13:57:22;9.90;99.90
14517;DHT22;7344;50.864;4.362;2023-12-20T13:59:48;9.90;99.90
14517;DHT22;7344;50.864;4.362;2023-12-20T14:02:13;9.80;99.90
14517;DHT22;7344;50.864;4.362;2023-12-20T14:04:39;9.80;99.90
14517;DHT22;7344;50.864;4.362;2023-12-20T14:07:05;9.80;99.90
14517;DHT22;7344;50.864;4.362;2023-12-20T14:09:31;9.80;99.90
14517;DHT22;7344;50.864;4.362;2023-12-20T14:11:56;9.90;99.90
14517;DHT22;7344;50.864;4.362;2023-12-20T14:14:22;10.00;99.90
14517;DHT22;7344;50.864;4.362;2023-12-20T14:16:47;10.00;99.90
14517;DHT22;7344;50.864;4.362;2023-12-20T14:19:13;10.00;99.90
14517;DHT22;7344;50.864;4.362;2023-12-20T14:21:39;10.00;99.90
14517;DHT22;7344;50.864;4.362;2023-12-20T14:24:04;10.00;99.90
14517;DHT22;7344;50.864;4.362;2023-12-20T14:26:31;10.00;99.90
14517;DHT22;7344;50.864;4.362;2023-12-20T14:28:57;10.10;99.90
14517;DHT22;7344;50.864;4.362;2023-12-20T14:31:23;10.10;99.90
14517;DHT22;7344;50.864;4.362;2023-12-20T14:33:50;10.10;99.90
14517;DHT22;7344;50.864;4.362;2023-12-20T14:36:18;10.20;99.90
14517;DHT22;7344;50.864;4.362;2023-12-20T14:38:45;10.20;99.90
14517;DHT22;7344;50.864;4.362;2023-12-20T14:41:12;10.10;99.90
14517;DHT22;7344;50.864;4.362;2023-12-20T14:43:37;10.20;99.90
14517;DHT22;7344;50.864;4.362;2023-12-20T14:46:03;10.10;99.90
14517;DHT22;7344;50.864;4.362;2023-12-20T14:48:28;10.00;99.90
14517;DHT22;7344;50.864;4.362;2023-12-20T14:50:54;10.00;99.90
14517;DHT22;7344;50.864;4.362;2023-12-20T14:53:20;10.00;99.90
14517;DHT22;7344;50.864;4.362;2023-12-20T14:55:46;10.00;99.90
14517;DHT22;7344;50.864;4.362;2023-12-20T14:58:12;10.10;99.90
14517;DHT22;7344;50.864;4.362;2023-12-20T15:00:38;10.10;99.90
14517;DHT22;7344;50.864;4.362;2023-12-20T15:03:03;10.10;99.90
14517;DHT22;7344;50.864;4.362;2023-12-20T15:05:30;10.00;99.90
14517;DHT22;7344;50.864;4.362;2023-12-20T15:07:56;10.00;99.90
14517;DHT22;7344;50.864;4.362;2023-12-20T15:10:22;10.00;99.90
14517;DHT22;7344;50.864;4.362;2023-12-20T15:12:47;10.10;99.90
14517;DHT22;7344;50.864;4.362;2023-12-20T15:15:13;10.10;99.90
14517;DHT22;7344;50.864;4.362;2023-12-20T15:17:39;10.20;99.90
14517;DHT22;7344;50.864;4.362;2023-12-20T15:20:05;10.20;99.90
14517;DHT22;7344;50.864;4.362;2023-12-20T15:22:31;10.30;99.90
14517;DHT22;7344;50.864;4.362;2023-12-20T15:24:59;10.20;99.90
14517;DHT22;7344;50.864;4.362;2023-12-20T15:27:25;10.20;99.90
14517;DHT22;7344;50.864;4.362;2023-12-20T15:29:50;10.20;99.90
14517;DHT22;7344;50.864;4.362;2023-12-20T15:32:17;10.30;99.90
14517;DHT22;7344;50.864;4.362;2023-12-20T15:34:44;10.30;99.90
14517;DHT22;7344;50.864;4.362;2023-12-20T15:37:10;10.30;99.90
14517;DHT22;7344;50.864;4.362;2023-12-20T15:39:36;10.10;99.90
14517;DHT22;7344;50.864;4.362;2023-12-20T15:42:01;10.10;99.90
14517;DHT22;7344;50.864;4.362;2023-12-20T15:44:27;10.10;99.90
14517;DHT22;7344;50.864;4.362;2023-12-20T15:46:52;10.20;99.90
14517;DHT22;7344;50.864;4.362;2023-12-20T15:49:18;10.20;99.90
14517;DHT22;7344;50.864;4.362;2023-12-20T15:51:44;10.20;99.90
14517;DHT22;7344;50.864;4.362;2023-12-20T15:54:10;10.20;99.90
14517;DHT22;7344;50.864;4.362;2023-12-20T15:56:36;10.10;99.90